sensor_id;sensor_type;location;lat;lon;timestamp;temperature;humidity
6538;DHT22;3302;52.508;13.454;2024-01-30T00:01:59;3.30;93.50
6538;DHT22;3302;52.508;13.454;2024-01-30T00:04:24;3.20;93.60
6538;DHT22;3302;52.508;13.454;2024-01-30T00:06:51;3.20;93.80
6538;DHT22;3302;52.508;13.454;2024-01-30T00:09:18;3.10;94.00
6538;DHT22;3302;52.508;13.454;2024-01-30T00:11:45;3.10;93.90
6538;DHT22;3302;52.508;13.454;2024-01-30T00:14:11;3.10;93.90
6538;DHT22;3302;52.508;13.454;2024-01-30T00:16:37;3.10;94.00
6538;DHT22;3302;52.508;13.454;2024-01-30T00:19:02;3.10;94.10
6538;DHT22;3302;52.508;13.454;2024-01-30T00:21:29;3.20;93.90
6538;DHT22;3302;52.508;13.454;2024-01-30T00:23:55;3.10;93.90
6538;DHT22;3302;52.508;13.454;2024-01-30T00:26:20;3.00;94.30
6538;DHT22;3302;52.508;13.454;2024-01-30T00:28:46;3.00;94.50
6538;DHT22;3302;52.508;13.454;2024-01-30T00:31:12;3.00;94.60
6538;DHT22;3302;52.508;13.454;2024-01-30T00:33:41;3.00;94.70
6538;DHT22;3302;52.508;13.454;2024-01-30T00:36:08;3.10;94.60
6538;DHT22;3302;52.508;13.454;2024-01-30T00:38:35;3.10;94.30
6538;DHT22;3302;52.508;13.454;2024-01-30T00:41:01;3.00;94.60
6538;DHT22;3302;52.508;13.454;2024-01-30T00:43:30;3.00;94.60
6538;DHT22;3302;52.508;13.454;2024-01-30T00:45:57;2.90;94.70
6538;DHT22;3302;52.508;13.454;2024-01-30T00:48:23;2.90;94.60
6538;DHT22;3302;52.508;13.454;2024-01-30T00:50:49;2.90;94.80
6538;DHT22;3302;52.508;13.454;2024-01-30T00:53:15;2.90;94.80
6538;DHT22;3302;52.508;13.454;2024-01-30T00:55:41;2.80;95.10
6538;DHT22;3302;52.508;13.454;2024-01-30T00:58:07;2.90;95.00
6538;DHT22;3302;52.508;13.454;2024-01-30T01:00:32;2.80;94.90
6538;DHT22;3302;52.508;13.454;2024-01-30T01:02:58;2.90;94.90
6538;DHT22;3302;52.508;13.454;2024-01-30T01:05:25;2.90;94.90
6538;DHT22;3302;52.508;13.454;2024-01-30T01:07:51;3.00;94.70
6538;DHT22;3302;52.508;13.454;2024-01-30T01:10:17;2.90;94.80
6538;DHT22;3302;52.508;13.454;2024-01-30T01:12:44;2.90;94.60
6538;DHT22;3302;52.508;13.454;2024-01-30T01:15:10;2.80;95.00
6538;DHT22;3302;52.508;13.454;2024-01-30T01:17:37;2.80;95.10
6538;DHT22;3302;52.508;13.454;2024-01-30T01:20:04;2.80;94.90
6538;DHT22;3302;52.508;13.454;2024-01-30T01:22:31;2.60;94.90
6538;DHT22;3302;52.508;13.454;2024-01-30T01:24:57;2.60;95.10
6538;DHT22;3302;52.508;13.454;2024-01-30T01:27:22;2.60;95.20
6538;DHT22;3302;52.508;13.454;2024-01-30T01:29:48;2.60;95.00
6538;DHT22;3302;52.508;13.454;2024-01-30T01:32:14;2.60;95.00
6538;DHT22;3302;52.508;13.454;2024-01-30T01:34:40;2.60;95.20
6538;DHT22;3302;52.508;13.454;2024-01-30T01:37:05;2.50;95.10
6538;DHT22;3302;52.508;13.454;2024-01-30T01:39:32;2.50;95.30
6538;DHT22;3302;52.508;13.454;2024-01-30T01:41:58;2.40;95.50
6538;DHT22;3302;52.508;13.454;2024-01-30T01:44:24;2.40;95.50
6538;DHT22;3302;52.508;13.454;2024-01-30T01:46:51;2.40;95.60
6538;DHT22;3302;52.508;13.454;2024-01-30T01:49:18;2.50;95.70
6538;DHT22;3302;52.508;13.454;2024-01-30T01:51:47;2.40;96.00
6538;DHT22;3302;52.508;13.454;2024-01-30T01:54:14;2.40;96.00
6538;DHT22;3302;52.508;13.454;2024-01-30T01:56:42;2.30;95.80
6538;DHT22;3302;52.508;13.454;2024-01-30T01:59:09;2.40;96.00
6538;DHT22;3302;52.508;13.454;2024-01-30T02:01:38;2.30;96.00
6538;DHT22;3302;52.508;13.454;2024-01-30T02:04:07;2.30;96.10
6538;DHT22;3302;52.508;13.454;2024-01-30T02:06:34;2.30;96.00
6538;DHT22;3302;52.508;13.454;2024-01-30T02:09:00;2.30;96.10
6538;DHT22;3302;52.508;13.454;2024-01-30T02:11:26;2.20;96.20
6538;DHT22;3302;52.508;13.454;2024-01-30T02:13:52;2.40;96.50
6538;DHT22;3302;52.508;13.454;2024-01-30T02:16:18;2.40;95.80
6538;DHT22;3302;52.508;13.454;2024-01-30T02:18:44;2.30;95.90
6538;DHT22;3302;52.508;13.454;2024-01-30T02:21:16;2.40;95.90
6538;DHT22;3302;52.508;13.454;2024-01-30T02:23:44;2.40;95.90
6538;DHT22;3302;52.508;13.454;2024-01-30T02:26:12;2.50;95.80
6538;DHT22;3302;52.508;13.454;2024-01-30T02:28:38;2.40;95.80
6538;DHT22;3302;52.508;13.454;2024-01-30T02:31:04;2.50;95.90
6538;DHT22;3302;52.508;13.454;2024-01-30T02:33:30;2.40;96.00
6538;DHT22;3302;52.508;13.454;2024-01-30T02:35:56;2.40;96.00
6538;DHT22;3302;52.508;13.454;2024-01-30T02:38:22;2.40;96.20
6538;DHT22;3302;52.508;13.454;2024-01-30T02:40:49;2.40;96.10
6538;DHT22;3302;52.508;13.454;2024-01-30T02:43:16;2.30;96.30
6538;DHT22;3302;52.508;13.454;2024-01-30T02:45:42;2.20;96.70
6538;DHT22;3302;52.508;13.454;2024-01-30T02:48:08;2.10;96.90
6538;DHT22;3302;52.508;13.454;2024-01-30T02:50:34;2.20;97.00
6538;DHT22;3302;52.508;13.454;2024-01-30T02:53:00;2.30;97.00
6538;DHT22;3302;52.508;13.454;2024-01-30T02:55:26;2.40;96.60
6538;DHT22;3302;52.508;13.454;2024-01-30T02:57:51;2.30;96.50
6538;DHT22;3302;52.508;13.454;2024-01-30T03:00:19;2.20;96.80
6538;DHT22;3302;52.508;13.454;2024-01-30T03:02:45;2.20;97.00
6538;DHT22;3302;52.508;13.454;2024-01-30T03:05:11;2.20;97.00
6538;DHT22;3302;52.508;13.454;2024-01-30T03:07:37;2.10;97.00
6538;DHT22;3302;52.508;13.454;2024-01-30T03:10:04;2.10;97.20
6538;DHT22;3302;52.508;13.454;2024-01-30T03:12:31;2.20;97.10
6538;DHT22;3302;52.508;13.454;2024-01-30T03:14:57;2.20;97.10
6538;DHT22;3302;52.508;13.454;2024-01-30T03:17:23;2.30;97.10
6538;DHT22;3302;52.508;13.454;2024-01-30T03:19:50;2.30;97.00
6538;DHT22;3302;52.508;13.454;2024-01-30T03:22:16;2.20;97.20
6538;DHT22;3302;52.508;13.454;2024-01-30T03:24:42;2.20;97.30
6538;DHT22;3302;52.508;13.454;2024-01-30T03:27:08;2.20;97.30
6538;DHT22;3302;52.508;13.454;2024-01-30T03:29:34;2.20;97.40
6538;DHT22;3302;52.508;13.454;2024-01-30T03:32:00;2.20;97.50
6538;DHT22;3302;52.508;13.454;2024-01-30T03:34:26;2.20;97.70
6538;DHT22;3302;52.508;13.454;2024-01-30T03:36:52;2.20;97.70
6538;DHT22;3302;52.508;13.454;2024-01-30T03:39:18;2.10;97.90
6538;DHT22;3302;52.508;13.454;2024-01-30T03:41:44;2.10;98.10
6538;DHT22;3302;52.508;13.454;2024-01-30T03:44:10;2.00;98.20
6538;DHT22;3302;52.508;13.454;2024-01-30T03:46:36;2.10;98.20
6538;DHT22;3302;52.508;13.454;2024-01-30T03:49:02;2.10;98.10
6538;DHT22;3302;52.508;13.454;2024-01-30T03:51:28;2.10;98.20
6538;DHT22;3302;52.508;13.454;2024-01-30T03:53:53;2.10;98.20
6538;DHT22;3302;52.508;13.454;2024-01-30T03:56:19;2.20;98.10
6538;DHT22;3302;52.508;13.454;2024-01-30T03:58:45;2.30;98.10
6538;DHT22;3302;52.508;13.454;2024-01-30T04:01:14;2.20;98.10
6538;DHT22;3302;52.508;13.454;2024-01-30T04:03:41;2.20;98.30
6538;DHT22;3302;52.508;13.454;2024-01-30T04:06:07;2.20;98.40
6538;DHT22;3302;52.508;13.454;2024-01-30T04:08:33;2.00;98.60
6538;DHT22;3302;52.508;13.454;2024-01-30T04:11:02;2.00;98.90
6538;DHT22;3302;52.508;13.454;2024-01-30T04:13:28;2.00;98.90
6538;DHT22;3302;52.508;13.454;2024-01-30T04:15:54;2.10;98.90
6538;DHT22;3302;52.508;13.454;2024-01-30T04:18:20;2.10;98.90
6538;DHT22;3302;52.508;13.454;2024-01-30T04:20:46;2.10;98.90
6538;DHT22;3302;52.508;13.454;2024-01-30T04:23:12;2.20;98.80
6538;DHT22;3302;52.508;13.454;2024-01-30T04:25:38;2.10;98.70
6538;DHT22;3302;52.508;13.454;2024-01-30T04:28:04;2.10;99.00
6538;DHT22;3302;52.508;13.454;2024-01-30T04:30:30;2.20;99.00
6538;DHT22;3302;52.508;13.454;2024-01-30T04:32:56;2.20;99.00
6538;DHT22;3302;52.508;13.454;2024-01-30T04:35:21;2.20;99.00
6538;DHT22;3302;52.508;13.454;2024-01-30T04:37:52;2.20;98.90
6538;DHT22;3302;52.508;13.454;2024-01-30T04:40:18;2.20;99.00
6538;DHT22;3302;52.508;13.454;2024-01-30T04:42:44;2.20;99.40
6538;DHT22;3302;52.508;13.454;2024-01-30T04:45:10;2.20;99.20
6538;DHT22;3302;52.508;13.454;2024-01-30T04:47:35;2.20;99.10
6538;DHT22;3302;52.508;13.454;2024-01-30T04:50:01;2.20;99.20
6538;DHT22;3302;52.508;13.454;2024-01-30T04:52:28;2.10;99.40
6538;DHT22;3302;52.508;13.454;2024-01-30T04:54:54;2.10;99.60
6538;DHT22;3302;52.508;13.454;2024-01-30T04:57:20;2.00;99.60
6538;DHT22;3302;52.508;13.454;2024-01-30T04:59:45;2.00;99.70
6538;DHT22;3302;52.508;13.454;2024-01-30T05:02:11;2.00;99.80
6538;DHT22;3302;52.508;13.454;2024-01-30T05:04:38;2.00;99.70
6538;DHT22;3302;52.508;13.454;2024-01-30T05:07:04;2.00;99.90
6538;DHT22;3302;52.508;13.454;2024-01-30T05:09:29;2.00;99.80
6538;DHT22;3302;52.508;13.454;2024-01-30T05:11:55;2.10;99.80
6538;DHT22;3302;52.508;13.454;2024-01-30T05:14:21;2.00;99.90
6538;DHT22;3302;52.508;13.454;2024-01-30T05:16:47;2.00;99.90
6538;DHT22;3302;52.508;13.454;2024-01-30T05:19:13;2.00;99.90
6538;DHT22;3302;52.508;13.454;2024-01-30T05:21:40;2.10;99.90
6538;DHT22;3302;52.508;13.454;2024-01-30T05:24:06;2.00;99.90
6538;DHT22;3302;52.508;13.454;2024-01-30T05:26:32;2.00;99.90
6538;DHT22;3302;52.508;13.454;2024-01-30T05:28:59;2.00;99.90
6538;DHT22;3302;52.508;13.454;2024-01-30T05:31:24;2.00;99.90
6538;DHT22;3302;52.508;13.454;2024-01-30T05:33:54;1.90;99.90
6538;DHT22;3302;52.508;13.454;2024-01-30T05:36:20;2.00;99.90
6538;DHT22;3302;52.508;13.454;2024-01-30T05:38:46;2.00;99.90
6538;DHT22;3302;52.508;13.454;2024-01-30T05:41:12;1.90;99.90
6538;DHT22;3302;52.508;13.454;2024-01-30T05:43:37;1.90;99.90
6538;DHT22;3302;52.508;13.454;2024-01-30T05:46:03;1.90;99.90
6538;DHT22;3302;52.508;13.454;2024-01-30T05:48:29;1.90;99.90
6538;DHT22;3302;52.508;13.454;2024-01-30T05:50:55;2.00;99.90
6538;DHT22;3302;52.508;13.454;2024-01-30T05:53:22;1.90;99.90
6538;DHT22;3302;52.508;13.454;2024-01-30T05:55:47;1.90;99.90
6538;DHT22;3302;52.508;13.454;2024-01-30T05:58:13;1.90;99.90
6538;DHT22;3302;52.508;13.454;2024-01-30T06:00:39;1.90;99.90
6538;DHT22;3302;52.508;13.454;2024-01-30T06:03:05;1.90;99.90
6538;DHT22;3302;52.508;13.454;2024-01-30T06:05:31;1.90;99.90
6538;DHT22;3302;52.508;13.454;2024-01-30T06:07:56;1.90;99.90
6538;DHT22;3302;52.508;13.454;2024-01-30T06:10:22;1.90;99.90
6538;DHT22;3302;52.508;13.454;2024-01-30T06:12:49;2.00;99.90
6538;DHT22;3302;52.508;13.454;2024-01-30T06:15:15;1.90;99.90
6538;DHT22;3302;52.508;13.454;2024-01-30T06:17:41;1.80;99.90
6538;DHT22;3302;52.508;13.454;2024-01-30T06:20:07;1.80;99.90
6538;DHT22;3302;52.508;13.454;2024-01-30T06:22:33;1.80;99.90
6538;DHT22;3302;52.508;13.454;2024-01-30T06:24:58;1.80;99.90
6538;DHT22;3302;52.508;13.454;2024-01-30T06:27:24;1.80;99.90
6538;DHT22;3302;52.508;13.454;2024-01-30T06:29:50;1.80;99.90
6538;DHT22;3302;52.508;13.454;2024-01-30T06:32:16;1.80;99.90
6538;DHT22;3302;52.508;13.454;2024-01-30T06:34:42;1.80;99.90
6538;DHT22;3302;52.508;13.454;2024-01-30T06:37:10;1.70;99.90
6538;DHT22;3302;52.508;13.454;2024-01-30T06:39:36;1.80;99.90
6538;DHT22;3302;52.508;13.454;2024-01-30T06:42:01;2.00;99.90
6538;DHT22;3302;52.508;13.454;2024-01-30T06:44:29;2.10;99.90
6538;DHT22;3302;52.508;13.454;2024-01-30T06:46:55;2.10;99.90
6538;DHT22;3302;52.508;13.454;2024-01-30T06:49:20;2.20;99.90
6538;DHT22;3302;52.508;13.454;2024-01-30T06:51:47;2.10;99.90
6538;DHT22;3302;52.508;13.454;2024-01-30T06:54:13;2.10;99.90
6538;DHT22;3302;52.508;13.454;2024-01-30T06:56:39;2.20;99.90
6538;DHT22;3302;52.508;13.454;2024-01-30T06:59:05;2.20;99.90
6538;DHT22;3302;52.508;13.454;2024-01-30T07:01:31;2.20;99.90
6538;DHT22;3302;52.508;13.454;2024-01-30T07:03:57;2.20;99.90
6538;DHT22;3302;52.508;13.454;2024-01-30T07:06:23;2.10;99.90
6538;DHT22;3302;52.508;13.454;2024-01-30T07:08:49;2.10;99.90
6538;DHT22;3302;52.508;13.454;2024-01-30T07:11:22;2.00;99.90
6538;DHT22;3302;52.508;13.454;2024-01-30T07:13:51;2.10;99.90
6538;DHT22;3302;52.508;13.454;2024-01-30T07:16:17;2.10;99.90
6538;DHT22;3302;52.508;13.454;2024-01-30T07:18:43;2.00;99.90
6538;DHT22;3302;52.508;13.454;2024-01-30T07:21:09;2.00;99.90
6538;DHT22;3302;52.508;13.454;2024-01-30T07:23:35;2.00;99.90
6538;DHT22;3302;52.508;13.454;2024-01-30T07:26:07;2.00;99.90
6538;DHT22;3302;52.508;13.454;2024-01-30T07:28:34;2.00;99.90
6538;DHT22;3302;52.508;13.454;2024-01-30T07:31:01;2.10;99.90
6538;DHT22;3302;52.508;13.454;2024-01-30T07:33:27;2.20;99.90
6538;DHT22;3302;52.508;13.454;2024-01-30T07:35:53;2.20;99.90
6538;DHT22;3302;52.508;13.454;2024-01-30T07:38:19;2.20;99.90
6538;DHT22;3302;52.508;13.454;2024-01-30T07:40:45;2.40;99.90
6538;DHT22;3302;52.508;13.454;2024-01-30T07:43:11;2.40;99.90
6538;DHT22;3302;52.508;13.454;2024-01-30T07:45:37;2.40;99.90
6538;DHT22;3302;52.508;13.454;2024-01-30T07:48:07;2.30;99.90
6538;DHT22;3302;52.508;13.454;2024-01-30T07:50:33;2.40;99.90
6538;DHT22;3302;52.508;13.454;2024-01-30T07:53:00;2.30;99.90
6538;DHT22;3302;52.508;13.454;2024-01-30T07:55:26;2.30;99.90
6538;DHT22;3302;52.508;13.454;2024-01-30T08:01:28;2.40;99.90
6538;DHT22;3302;52.508;13.454;2024-01-30T08:03:54;2.40;99.90
6538;DHT22;3302;52.508;13.454;2024-01-30T08:06:20;2.40;99.90
6538;DHT22;3302;52.508;13.454;2024-01-30T08:08:46;2.40;99.90
6538;DHT22;3302;52.508;13.454;2024-01-30T08:11:12;2.40;99.90
6538;DHT22;3302;52.508;13.454;2024-01-30T08:13:38;2.30;99.90
6538;DHT22;3302;52.508;13.454;2024-01-30T08:16:04;2.40;99.90
6538;DHT22;3302;52.508;13.454;2024-01-30T08:18:30;2.40;99.90
6538;DHT22;3302;52.508;13.454;2024-01-30T08:20:55;2.50;99.90
6538;DHT22;3302;52.508;13.454;2024-01-30T08:23:21;2.40;99.90
6538;DHT22;3302;52.508;13.454;2024-01-30T08:25:47;2.50;99.90
6538;DHT22;3302;52.508;13.454;2024-01-30T08:28:13;2.50;99.90
6538;DHT22;3302;52.508;13.454;2024-01-30T08:30:38;2.50;99.90
6538;DHT22;3302;52.508;13.454;2024-01-30T08:33:05;2.60;99.90
6538;DHT22;3302;52.508;13.454;2024-01-30T08:35:31;2.60;99.90
6538;DHT22;3302;52.508;13.454;2024-01-30T08:37:59;2.70;99.90
6538;DHT22;3302;52.508;13.454;2024-01-30T08:40:25;2.70;99.90
6538;DHT22;3302;52.508;13.454;2024-01-30T08:42:51;2.70;99.90
6538;DHT22;3302;52.508;13.454;2024-01-30T08:45:16;2.80;99.90
6538;DHT22;3302;52.508;13.454;2024-01-30T08:47:42;2.80;99.90
6538;DHT22;3302;52.508;13.454;2024-01-30T08:50:08;2.90;99.90
6538;DHT22;3302;52.508;13.454;2024-01-30T08:52:34;2.90;99.90
6538;DHT22;3302;52.508;13.454;2024-01-30T08:55:00;3.00;99.90
6538;DHT22;3302;52.508;13.454;2024-01-30T08:57:26;3.10;99.90
6538;DHT22;3302;52.508;13.454;2024-01-30T08:59:54;3.30;99.90
6538;DHT22;3302;52.508;13.454;2024-01-30T09:02:20;3.40;99.60
6538;DHT22;3302;52.508;13.454;2024-01-30T09:04:46;3.50;99.40
6538;DHT22;3302;52.508;13.454;2024-01-30T09:07:12;3.60;99.00
6538;DHT22;3302;52.508;13.454;2024-01-30T09:09:39;3.70;98.70
6538;DHT22;3302;52.508;13.454;2024-01-30T09:12:08;3.70;98.30
6538;DHT22;3302;52.508;13.454;2024-01-30T09:14:37;3.80;98.10
6538;DHT22;3302;52.508;13.454;2024-01-30T09:17:03;3.90;97.90
6538;DHT22;3302;52.508;13.454;2024-01-30T09:19:30;3.90;97.90
6538;DHT22;3302;52.508;13.454;2024-01-30T09:21:56;4.00;98.30
6538;DHT22;3302;52.508;13.454;2024-01-30T09:24:22;4.00;97.90
6538;DHT22;3302;52.508;13.454;2024-01-30T09:26:51;4.10;97.50
6538;DHT22;3302;52.508;13.454;2024-01-30T09:29:16;4.10;97.10
6538;DHT22;3302;52.508;13.454;2024-01-30T09:31:45;4.20;96.80
6538;DHT22;3302;52.508;13.454;2024-01-30T09:34:12;4.20;96.80
6538;DHT22;3302;52.508;13.454;2024-01-30T09:36:38;4.30;96.70
6538;DHT22;3302;52.508;13.454;2024-01-30T09:39:03;4.30;96.30
6538;DHT22;3302;52.508;13.454;2024-01-30T09:41:32;4.40;95.90
6538;DHT22;3302;52.508;13.454;2024-01-30T09:43:59;4.40;95.80
6538;DHT22;3302;52.508;13.454;2024-01-30T09:46:27;4.50;95.50
6538;DHT22;3302;52.508;13.454;2024-01-30T09:48:55;4.50;95.40
6538;DHT22;3302;52.508;13.454;2024-01-30T09:51:22;4.50;95.20
6538;DHT22;3302;52.508;13.454;2024-01-30T09:53:48;4.60;95.40
6538;DHT22;3302;52.508;13.454;2024-01-30T09:56:14;4.60;95.00
6538;DHT22;3302;52.508;13.454;2024-01-30T09:58:40;4.70;94.60
6538;DHT22;3302;52.508;13.454;2024-01-30T10:01:07;4.70;94.60
6538;DHT22;3302;52.508;13.454;2024-01-30T10:03:33;4.80;94.60
6538;DHT22;3302;52.508;13.454;2024-01-30T10:06:01;4.80;94.20
6538;DHT22;3302;52.508;13.454;2024-01-30T10:08:27;4.90;93.90
6538;DHT22;3302;52.508;13.454;2024-01-30T10:10:52;5.00;93.80
6538;DHT22;3302;52.508;13.454;2024-01-30T10:13:18;5.10;93.60
6538;DHT22;3302;52.508;13.454;2024-01-30T10:15:44;5.10;93.60
6538;DHT22;3302;52.508;13.454;2024-01-30T10:18:11;5.20;93.20
6538;DHT22;3302;52.508;13.454;2024-01-30T10:20:37;5.30;93.10
6538;DHT22;3302;52.508;13.454;2024-01-30T10:23:03;5.30;92.60
6538;DHT22;3302;52.508;13.454;2024-01-30T10:25:32;5.40;92.60
6538;DHT22;3302;52.508;13.454;2024-01-30T10:27:59;5.50;92.70
6538;DHT22;3302;52.508;13.454;2024-01-30T10:30:26;5.50;92.30
6538;DHT22;3302;52.508;13.454;2024-01-30T10:32:52;5.60;92.20
6538;DHT22;3302;52.508;13.454;2024-01-30T10:35:18;5.60;92.30
6538;DHT22;3302;52.508;13.454;2024-01-30T10:37:47;5.70;91.80
6538;DHT22;3302;52.508;13.454;2024-01-30T10:40:14;5.70;91.70
6538;DHT22;3302;52.508;13.454;2024-01-30T10:42:44;5.80;91.50
6538;DHT22;3302;52.508;13.454;2024-01-30T10:45:14;5.80;91.40
6538;DHT22;3302;52.508;13.454;2024-01-30T10:47:48;5.90;90.80
6538;DHT22;3302;52.508;13.454;2024-01-30T10:50:15;5.90;90.80
6538;DHT22;3302;52.508;13.454;2024-01-30T10:52:41;5.90;90.60
6538;DHT22;3302;52.508;13.454;2024-01-30T10:55:11;6.10;90.20
6538;DHT22;3302;52.508;13.454;2024-01-30T10:57:37;6.10;90.10
6538;DHT22;3302;52.508;13.454;2024-01-30T11:00:10;6.20;89.20
6538;DHT22;3302;52.508;13.454;2024-01-30T11:02:39;6.30;88.80
6538;DHT22;3302;52.508;13.454;2024-01-30T11:05:06;6.30;88.50
6538;DHT22;3302;52.508;13.454;2024-01-30T11:07:32;6.40;88.40
6538;DHT22;3302;52.508;13.454;2024-01-30T11:10:05;6.40;87.80
6538;DHT22;3302;52.508;13.454;2024-01-30T11:12:37;6.40;87.30
6538;DHT22;3302;52.508;13.454;2024-01-30T11:15:11;6.40;87.60
6538;DHT22;3302;52.508;13.454;2024-01-30T11:17:41;6.50;87.60
6538;DHT22;3302;52.508;13.454;2024-01-30T11:20:30;6.50;86.50
6538;DHT22;3302;52.508;13.454;2024-01-30T11:22:57;6.60;86.90
6538;DHT22;3302;52.508;13.454;2024-01-30T11:25:24;6.70;86.40
6538;DHT22;3302;52.508;13.454;2024-01-30T11:27:55;6.60;86.00
6538;DHT22;3302;52.508;13.454;2024-01-30T11:30:29;6.60;86.00
6538;DHT22;3302;52.508;13.454;2024-01-30T11:35:33;6.60;86.50
6538;DHT22;3302;52.508;13.454;2024-01-30T11:38:00;6.60;86.70
6538;DHT22;3302;52.508;13.454;2024-01-30T11:40:30;6.60;86.30
6538;DHT22;3302;52.508;13.454;2024-01-30T11:42:58;6.70;86.50
6538;DHT22;3302;52.508;13.454;2024-01-30T11:45:26;6.70;86.40
6538;DHT22;3302;52.508;13.454;2024-01-30T11:47:52;6.70;86.60
6538;DHT22;3302;52.508;13.454;2024-01-30T11:50:18;6.70;86.40
6538;DHT22;3302;52.508;13.454;2024-01-30T11:52:44;6.80;86.30
6538;DHT22;3302;52.508;13.454;2024-01-30T11:55:10;6.80;86.00
6538;DHT22;3302;52.508;13.454;2024-01-30T11:57:36;6.80;86.10
6538;DHT22;3302;52.508;13.454;2024-01-30T12:00:05;6.90;86.30
6538;DHT22;3302;52.508;13.454;2024-01-30T12:02:36;6.90;86.00
6538;DHT22;3302;52.508;13.454;2024-01-30T12:05:06;6.90;86.30
6538;DHT22;3302;52.508;13.454;2024-01-30T12:07:32;7.00;86.40
6538;DHT22;3302;52.508;13.454;2024-01-30T12:09:58;7.00;86.40
6538;DHT22;3302;52.508;13.454;2024-01-30T12:12:26;7.10;86.00
6538;DHT22;3302;52.508;13.454;2024-01-30T12:14:52;7.00;85.70
6538;DHT22;3302;52.508;13.454;2024-01-30T12:17:29;7.10;86.00
6538;DHT22;3302;52.508;13.454;2024-01-30T12:20:12;7.10;86.00
6538;DHT22;3302;52.508;13.454;2024-01-30T12:22:41;7.10;86.20
6538;DHT22;3302;52.508;13.454;2024-01-30T12:25:08;7.20;85.90
6538;DHT22;3302;52.508;13.454;2024-01-30T12:27:38;7.30;86.00
6538;DHT22;3302;52.508;13.454;2024-01-30T12:30:11;7.20;86.00
6538;DHT22;3302;52.508;13.454;2024-01-30T12:32:39;7.20;86.20
6538;DHT22;3302;52.508;13.454;2024-01-30T12:35:10;7.30;86.90
6538;DHT22;3302;52.508;13.454;2024-01-30T12:37:37;7.20;86.20
6538;DHT22;3302;52.508;13.454;2024-01-30T12:40:03;7.20;86.60
6538;DHT22;3302;52.508;13.454;2024-01-30T12:42:29;7.30;87.80
6538;DHT22;3302;52.508;13.454;2024-01-30T12:45:01;7.30;87.00
6538;DHT22;3302;52.508;13.454;2024-01-30T12:47:27;7.30;87.30
6538;DHT22;3302;52.508;13.454;2024-01-30T12:49:53;7.30;87.20
6538;DHT22;3302;52.508;13.454;2024-01-30T12:52:20;7.30;87.50
6538;DHT22;3302;52.508;13.454;2024-01-30T12:54:47;7.30;87.80
6538;DHT22;3302;52.508;13.454;2024-01-30T12:57:13;7.30;87.70
6538;DHT22;3302;52.508;13.454;2024-01-30T12:59:39;7.40;87.90
6538;DHT22;3302;52.508;13.454;2024-01-30T13:02:05;7.40;88.10
6538;DHT22;3302;52.508;13.454;2024-01-30T13:04:31;7.50;88.20
6538;DHT22;3302;52.508;13.454;2024-01-30T13:06:57;7.40;88.20
6538;DHT22;3302;52.508;13.454;2024-01-30T13:09:23;7.50;88.30
6538;DHT22;3302;52.508;13.454;2024-01-30T13:11:50;7.40;88.40
6538;DHT22;3302;52.508;13.454;2024-01-30T13:14:17;7.50;88.90
6538;DHT22;3302;52.508;13.454;2024-01-30T13:16:43;7.50;88.80
6538;DHT22;3302;52.508;13.454;2024-01-30T13:19:09;7.50;88.60
6538;DHT22;3302;52.508;13.454;2024-01-30T13:21:35;7.60;88.80
6538;DHT22;3302;52.508;13.454;2024-01-30T13:24:00;7.60;89.40
6538;DHT22;3302;52.508;13.454;2024-01-30T13:26:26;7.60;88.90
6538;DHT22;3302;52.508;13.454;2024-01-30T13:28:52;7.60;89.10
6538;DHT22;3302;52.508;13.454;2024-01-30T13:31:18;7.60;89.40
6538;DHT22;3302;52.508;13.454;2024-01-30T13:33:45;7.70;89.30
6538;DHT22;3302;52.508;13.454;2024-01-30T13:36:11;7.70;89.40
6538;DHT22;3302;52.508;13.454;2024-01-30T13:38:38;7.70;89.60
6538;DHT22;3302;52.508;13.454;2024-01-30T13:41:04;7.70;89.60
6538;DHT22;3302;52.508;13.454;2024-01-30T13:43:30;7.80;89.70
6538;DHT22;3302;52.508;13.454;2024-01-30T13:45:56;7.80;89.70
6538;DHT22;3302;52.508;13.454;2024-01-30T13:48:22;7.80;89.60
6538;DHT22;3302;52.508;13.454;2024-01-30T13:50:48;7.80;89.70
6538;DHT22;3302;52.508;13.454;2024-01-30T13:53:14;7.90;89.70
6538;DHT22;3302;52.508;13.454;2024-01-30T13:55:40;7.90;90.00
6538;DHT22;3302;52.508;13.454;2024-01-30T13:58:06;7.90;89.90
6538;DHT22;3302;52.508;13.454;2024-01-30T14:00:33;7.90;89.90
6538;DHT22;3302;52.508;13.454;2024-01-30T14:02:59;7.90;90.20
6538;DHT22;3302;52.508;13.454;2024-01-30T14:05:26;8.00;90.20
6538;DHT22;3302;52.508;13.454;2024-01-30T14:07:56;8.00;90.20
6538;DHT22;3302;52.508;13.454;2024-01-30T14:10:22;8.00;90.20
6538;DHT22;3302;52.508;13.454;2024-01-30T14:12:48;8.00;90.30
6538;DHT22;3302;52.508;13.454;2024-01-30T14:15:15;7.90;90.30
6538;DHT22;3302;52.508;13.454;2024-01-30T14:17:43;7.90;90.40
6538;DHT22;3302;52.508;13.454;2024-01-30T14:20:09;7.90;90.50
6538;DHT22;3302;52.508;13.454;2024-01-30T14:22:36;8.00;90.60
6538;DHT22;3302;52.508;13.454;2024-01-30T14:25:02;8.00;90.60
6538;DHT22;3302;52.508;13.454;2024-01-30T14:27:32;8.00;90.60
6538;DHT22;3302;52.508;13.454;2024-01-30T14:29:58;8.00;90.70
6538;DHT22;3302;52.508;13.454;2024-01-30T14:32:24;8.00;90.80
6538;DHT22;3302;52.508;13.454;2024-01-30T14:34:50;8.00;90.80
6538;DHT22;3302;52.508;13.454;2024-01-30T14:37:18;8.00;90.80
6538;DHT22;3302;52.508;13.454;2024-01-30T14:39:44;8.00;90.90
6538;DHT22;3302;52.508;13.454;2024-01-30T14:42:10;8.00;90.90
6538;DHT22;3302;52.508;13.454;2024-01-30T14:44:36;8.00;91.00
6538;DHT22;3302;52.508;13.454;2024-01-30T14:47:02;8.00;91.00
6538;DHT22;3302;52.508;13.454;2024-01-30T14:49:28;8.00;91.20
6538;DHT22;3302;52.508;13.454;2024-01-30T14:51:53;8.00;91.10
6538;DHT22;3302;52.508;13.454;2024-01-30T14:54:20;8.00;91.20
6538;DHT22;3302;52.508;13.454;2024-01-30T14:56:46;8.00;91.30
6538;DHT22;3302;52.508;13.454;2024-01-30T14:59:12;8.00;91.80
6538;DHT22;3302;52.508;13.454;2024-01-30T15:01:38;8.00;91.50
6538;DHT22;3302;52.508;13.454;2024-01-30T15:04:04;8.00;91.40
6538;DHT22;3302;52.508;13.454;2024-01-30T15:06:30;8.00;91.40
6538;DHT22;3302;52.508;13.454;2024-01-30T15:08:55;8.00;91.60
6538;DHT22;3302;52.508;13.454;2024-01-30T15:11:21;8.00;91.70
6538;DHT22;3302;52.508;13.454;2024-01-30T15:13:47;7.90;91.80
6538;DHT22;3302;52.508;13.454;2024-01-30T15:16:13;7.90;91.80
6538;DHT22;3302;52.508;13.454;2024-01-30T15:18:40;7.90;92.30
6538;DHT22;3302;52.508;13.454;2024-01-30T15:21:05;7.90;92.00
6538;DHT22;3302;52.508;13.454;2024-01-30T15:23:31;7.90;92.00
6538;DHT22;3302;52.508;13.454;2024-01-30T15:25:57;7.90;92.00
6538;DHT22;3302;52.508;13.454;2024-01-30T15:28:34;7.90;92.40
6538;DHT22;3302;52.508;13.454;2024-01-30T15:31:01;7.80;92.20
6538;DHT22;3302;52.508;13.454;2024-01-30T15:33:27;7.80;92.30
6538;DHT22;3302;52.508;13.454;2024-01-30T15:35:52;7.80;92.40
6538;DHT22;3302;52.508;13.454;2024-01-30T15:38:19;7.80;92.40
6538;DHT22;3302;52.508;13.454;2024-01-30T15:40:46;7.80;92.50
6538;DHT22;3302;52.508;13.454;2024-01-30T15:43:12;7.70;92.50
6538;DHT22;3302;52.508;13.454;2024-01-30T15:45:38;7.70;92.60
6538;DHT22;3302;52.508;13.454;2024-01-30T15:48:05;7.70;92.70
6538;DHT22;3302;52.508;13.454;2024-01-30T15:50:30;7.70;92.70
6538;DHT22;3302;52.508;13.454;2024-01-30T15:52:56;7.70;93.00
6538;DHT22;3302;52.508;13.454;2024-01-30T15:55:22;7.70;93.10
6538;DHT22;3302;52.508;13.454;2024-01-30T15:57:48;7.70;93.10
6538;DHT22;3302;52.508;13.454;2024-01-30T16:00:14;7.70;93.20
6538;DHT22;3302;52.508;13.454;2024-01-30T16:02:40;7.60;93.20
6538;DHT22;3302;52.508;13.454;2024-01-30T16:05:06;7.60;93.40